map of VLM home
VLM - Airport
Location
City:  Villamontes, Gran Chaco, Tarija, Bolivia
Name:Teniente Coronel Rafael Pabón Airport
ICAO:SLVM
IATA:VLM

Details
Type:Airport (Aerodrome, Airfield)
Latitude:21°15'19"S (-21.255230)
Longitude:63°24'20"W (-63.405610)
Datum:WGS 1984
Elevation:1306 ft (398 m)
Variation:10.83°W (WMM2015 magnetic declination)
-0.20° annual change
Runways:1
Longest:4918 × 115 ft (1499 × 35 m), paved

Time
Time Zone:UTC-4
Local Time:

Weather
METAR:SLVM 182000Z 18010G25KT 9999 -TSRA SCT023 FEW030CB OVC0760 24/20 Q1010

Related Locations
Nearby:
Farthest:SWA: 12272 mi / 19749 km
Jieyang (Shantou) [Chaoshan Intl], 44, CN

Find:

   beyond  
but within

Other Information
Maps:
NOTAMs:
Links:
Sources:

  
  • flag of Bolivia
  • flag of Tarija
  

Sectional Chart

Flight Planning
at skyvector.com

Satellite Image

Google Maps Satellite view

 

Copyright © 2004-2018 Karl L. Swartz. All rights reserved.
The Great Circle Mapper name and logo are trademarks of the Great Circle Mapper.
All other trademarks mentioned herein belong to their respective owners.
Please see credits for attibutions and further copyright information.

  Follow gcmap on Facebook Follow gcmap on Twitter Follow gcmap on Google+ GCmap on LinkedIn

hCard Microformat

Geo Microformat